KSLG/SLG METAR and TAF weather

Enter ICAO airport designator
Station Type Date Time Source
KSLG METAR 2019/02/21 10:56 UTC NOAA

KSLG 211056Z AUTO 09004KT 9SM CLR 01/00 A3009 RMK AO2 SLP195 T00110000 FZRANO


Station Type Date Time Source
KSLG Decoded METAR 2019/02/21 10:56 UTC NOAA

Siloam Springs, Smith Field Airport, AR, United States (KSLG) 36-12N 094-29W
Feb 21, 2019 - 05:56 AM EST / 2019.02.21 1056 UTC
Wind: from the E (090 degrees) at 5 MPH (4 KT):0
Visibility: 9 mile(s):0
Sky conditions: clear
Temperature: 34.0 F (1.1 C)
Windchill: 30 F (-1 C):1
Dew Point: 32.0 F (0.0 C)
Relative Humidity: 92%
Pressure (altimeter): 30.09 in. Hg (1018 hPa)
ob: KSLG 211056Z AUTO 09004KT 9SM CLR 01/00 A3009 RMK AO2 SLP195 T00110000 FZRANO
cycle: 11

Station Type Date Time Source
KSLG TAF UTC NOAA

Error!


Example: see airport list